SCAR METAR and TAF weather

Enter ICAO airport designator
Station Type Date Time Source
SCAR METAR 2019/05/26 23:00 UTC NOAA

SCAR 262300Z 18003KT CAVOK 18/13 Q1015


Station Type Date Time Source
SCAR Decoded METAR 2019/05/26 23:00 UTC NOAA

Arica, Chile (SCAR) 18-20S 070-20W 58M
May 26, 2019 - 07:00 PM EDT / 2019.05.26 2300 UTC
Wind: from the S (180 degrees) at 3 MPH (3 KT):0
Visibility: greater than 7 mile(s):0
Temperature: 64 F (18 C)
Dew Point: 55 F (13 C)
Relative Humidity: 72%
Pressure (altimeter): 29.97 in. Hg (1015 hPa)
ob: SCAR 262300Z 18003KT CAVOK 18/13 Q1015
cycle: 23

Station Type Date Time Source
SCAR TAF 2019/05/26 18:03 UTC NOAA

TAF TAF SCAR 261651Z 2618/2718 22010KT 9999 BKN026 TX19/2618Z TN17/2706Z
BECMG 2622/2700 18004KT
BECMG 2703/2705 33004KT OVC025
BECMG 2709/2711 09004KT
BECMG 2716/2718 22010KT CAVOK

Example: see airport list